Halleck, NV (89824)

8:20 AM PST on January 25, 2015 (GMT -0800)
Ryndon(KNVELKO6) | Change Station
CLOSE
Current Station
Personal Weather Station
Location: Elko, NV
Elevation: 5230 ft
Nearby Weather Stations

Elev 5230 ft 40.96 °N, 115.59 °W | Updated 8 seconds ago

Clear
Clear
24.8 °F
Feels Like 25 °F
N
1.1
Wind Variable Wind from ESE
Gusts 3.8 mph

Today
High -- | Low -- °F
--% Chance of Precip.
Yesterday
High -- | Low -- °F
Precip. -- in
6:58 AM 4:50 PM
Waxing Crescent, 33% visible
Pressure 30.54 in
Visibility 10.0 miles
Clouds Clear
Windchill 25 °F
Dew Point 22 °F
Humidity 87%
Rainfall 0.00 in
Snow Depth Not available.
UV 0 out of 12
Pollen .50 out of 12
Air Quality Not available.
Flu Activity Not available.
METAR KEKO 251556Z AUTO 06005KT 10SM CLR M03/M06 A3046 RMK AO2 SLP341 T10331056

More Conditions Fewer Conditions

Pressure 30.54 in
Visibility 10.0 miles
Clouds Clear
Windchill 25 °F
Dew Point 22 °F
Humidity 87%
Rainfall 0.00 in
Snow Depth Not available.
UV 0 out of 12
Pollen .50 out of 12
Air Quality Not available.
Flu Activity Not available.
METAR KEKO 251556Z AUTO 06005KT 10SM CLR M03/M06 A3046 RMK AO2 SLP341 T10331056

More Conditions Fewer Conditions

10-Day Weather Forecast

Almanac

Astronomy

Jan. 25, 2015 Rise Set
Actual Time
Civil Twilight
Nautical Twilight
Astronomical Twilight
Moon
Length of Visible Light
Length of Day
Tomorrow will be .
, % of the Moon is Illuminated

Today's Extremes

State Highs State Lows

Community

WunderPhotos

Upload Photos

1,789,952 photos uploaded!

WunderBlogs® & News

Nearby

Air Quality

  Air Quality AQ Index Pollutant
Not available.

Snow Depth

Station Depth Elevation

Earthquake Activity

City Distance Mag. Time & Date
Minimum magnitude displayed is 2.5.

Coastal Water Temperatures

Place Temperature

Nearby Weather Stations